createdAt,value
2023-04-06T00:01:45.635Z,48.80
2023-04-06T00:04:48.628Z,49.06
2023-04-06T00:07:51.478Z,51.51
2023-04-06T00:10:54.593Z,50.91
2023-04-06T00:13:57.209Z,49.43
2023-04-06T00:17:00.142Z,50.58
2023-04-06T00:20:02.765Z,49.72
2023-04-06T00:23:05.772Z,48.86
2023-04-06T00:26:09.637Z,49.26
2023-04-06T00:29:12.973Z,50.65
2023-04-06T00:32:15.725Z,52.46
2023-04-06T00:35:18.542Z,51.52
2023-04-06T00:38:21.881Z,52.25
2023-04-06T00:41:24.524Z,53.16
2023-04-06T00:44:27.482Z,53.14
2023-04-06T00:47:29.991Z,53.66
2023-04-06T00:50:32.912Z,53.58
2023-04-06T00:53:35.645Z,51.68
2023-04-06T00:56:38.702Z,54.84
2023-04-06T00:59:41.817Z,53.00
2023-04-06T01:02:47.498Z,53.55
2023-04-06T01:05:59.320Z,52.95
2023-04-06T01:09:09.718Z,53.58
2023-04-06T01:12:12.545Z,54.98
2023-04-06T01:15:16.270Z,55.52
2023-04-06T01:18:28.208Z,55.45
2023-04-06T01:21:41.183Z,55.15
2023-04-06T01:24:57.810Z,55.67
2023-04-06T01:28:07.216Z,54.25
2023-04-06T01:31:27.934Z,52.46
2023-04-06T01:34:30.737Z,53.42
2023-04-06T01:37:38.085Z,53.71
2023-04-06T01:40:44.138Z,54.60
2023-04-06T01:43:48.378Z,54.84
2023-04-06T01:46:51.158Z,56.03
2023-04-06T01:49:55.615Z,57.00
2023-04-06T01:52:58.762Z,55.94
2023-04-06T01:56:03.822Z,54.43
2023-04-06T01:59:14.529Z,54.38
2023-04-06T02:02:19.300Z,53.67
2023-04-06T02:05:32.301Z,55.19
2023-04-06T02:08:35.995Z,55.43
2023-04-06T02:11:39.311Z,54.94
2023-04-06T02:14:42.294Z,54.04
2023-04-06T02:17:45.945Z,53.38
2023-04-06T02:20:48.688Z,53.45
2023-04-06T02:23:51.363Z,53.60
2023-04-06T02:26:54.122Z,53.53
2023-04-06T02:29:56.691Z,55.37
2023-04-06T02:33:01.465Z,54.94
2023-04-06T02:36:06.292Z,55.90
2023-04-06T02:39:09.314Z,55.78
2023-04-06T02:42:12.761Z,55.51
2023-04-06T02:45:15.702Z,55.65
2023-04-06T02:48:21.217Z,55.63
2023-04-06T02:51:23.861Z,55.03
2023-04-06T02:54:30.902Z,55.38
2023-04-06T02:57:34.309Z,54.93
2023-04-06T03:00:38.379Z,55.86
2023-04-06T03:03:41.509Z,54.05
2023-04-06T03:06:50.601Z,55.40
2023-04-06T03:10:02.864Z,55.63
2023-04-06T03:13:07.860Z,55.99
2023-04-06T03:16:28.876Z,55.71
2023-04-06T03:19:32.138Z,56.65
2023-04-06T03:22:37.938Z,57.71
2023-04-06T03:25:42.282Z,56.95
2023-04-06T03:28:48.390Z,56.77
2023-04-06T03:31:52.388Z,58.42
2023-04-06T03:35:09.555Z,56.89
2023-04-06T03:38:12.122Z,55.79
2023-04-06T03:41:15.210Z,55.77
2023-04-06T03:44:24.138Z,58.07
2023-04-06T03:47:27.181Z,56.25
2023-04-06T03:50:33.746Z,56.62
2023-04-06T03:53:38.444Z,56.41
2023-04-06T03:56:41.589Z,57.73
2023-04-06T03:59:44.222Z,56.91
2023-04-06T04:02:46.901Z,57.48
2023-04-06T04:05:52.372Z,57.66
2023-04-06T04:08:55.468Z,57.87
2023-04-06T04:11:58.923Z,58.24
2023-04-06T04:15:01.463Z,57.49
2023-04-06T04:18:04.369Z,57.14
2023-04-06T04:21:07.040Z,57.96
2023-04-06T04:24:10.277Z,56.88
2023-04-06T04:27:13.555Z,57.01
2023-04-06T04:30:17.684Z,57.86
2023-04-06T04:33:20.128Z,57.77
2023-04-06T04:36:24.301Z,58.79
2023-04-06T04:39:26.809Z,58.09
2023-04-06T04:42:36.770Z,56.70
2023-04-06T04:45:42.777Z,56.40
2023-04-06T04:49:06.627Z,57.39
2023-04-06T04:52:09.756Z,58.12
2023-04-06T04:55:24.263Z,57.63
2023-04-06T04:58:31.438Z,57.98
2023-04-06T05:01:47.667Z,56.89
2023-04-06T05:04:58.001Z,56.24
2023-04-06T05:08:03.339Z,55.58
2023-04-06T05:11:19.321Z,55.06
2023-04-06T05:14:29.982Z,51.10
2023-04-06T05:17:33.906Z,52.08
2023-04-06T05:20:36.835Z,50.43
2023-04-06T05:23:39.704Z,49.74
2023-04-06T05:26:42.824Z,49.32
2023-04-06T05:29:56.675Z,50.13
2023-04-06T05:33:02.775Z,48.75
2023-04-06T05:36:15.940Z,50.03
2023-04-06T05:39:21.401Z,48.85
2023-04-06T05:42:26.709Z,48.59
2023-04-06T05:45:32.797Z,48.05
2023-04-06T05:48:36.034Z,46.47
2023-04-06T05:51:39.710Z,47.18
2023-04-06T05:54:42.571Z,46.87
2023-04-06T05:57:45.262Z,46.41
2023-04-06T06:00:50.836Z,45.76
2023-04-06T06:03:57.585Z,45.20
2023-04-06T06:07:03.970Z,45.05
2023-04-06T06:10:15.084Z,46.69
2023-04-06T06:13:17.814Z,45.77
2023-04-06T06:16:20.754Z,44.84
2023-04-06T06:19:24.859Z,44.95
2023-04-06T06:22:30.874Z,44.86
2023-04-06T06:25:34.011Z,45.29
2023-04-06T06:28:37.598Z,44.70
2023-04-06T06:31:40.295Z,45.00
2023-04-06T06:34:42.986Z,44.05
2023-04-06T06:37:46.516Z,42.87
2023-04-06T06:40:52.336Z,43.15
2023-04-06T06:43:55.994Z,42.93
2023-04-06T06:46:58.457Z,40.77
2023-04-06T06:50:01.394Z,39.94
2023-04-06T06:53:03.916Z,39.55
2023-04-06T06:56:07.061Z,38.55
2023-04-06T06:59:10.798Z,38.46
2023-04-06T07:02:14.355Z,39.20
2023-04-06T07:05:27.650Z,38.94
2023-04-06T07:08:33.198Z,39.04
2023-04-06T07:11:35.722Z,38.57
2023-04-06T07:14:39.392Z,36.15
2023-04-06T07:17:46.745Z,36.44
2023-04-06T07:20:49.632Z,37.19
2023-04-06T07:23:53.317Z,36.56
2023-04-06T07:26:58.210Z,36.86
2023-04-06T07:30:02.019Z,35.89
2023-04-06T07:33:04.851Z,34.09
2023-04-06T07:36:08.384Z,34.55
2023-04-06T07:39:11.646Z,33.84
2023-04-06T07:42:14.208Z,33.45
2023-04-06T07:45:17.655Z,33.04
2023-04-06T07:48:20.200Z,33.57
2023-04-06T07:51:22.759Z,33.57
2023-04-06T07:54:25.789Z,32.18
2023-04-06T07:57:28.300Z,33.06
2023-04-06T08:00:31.399Z,32.84
2023-04-06T08:03:37.294Z,33.69
2023-04-06T08:06:39.981Z,32.56
2023-04-06T08:09:42.613Z,31.46
2023-04-06T08:12:45.165Z,33.01
2023-04-06T08:15:47.788Z,33.68
2023-04-06T08:18:50.263Z,32.62
2023-04-06T08:21:52.936Z,32.80
2023-04-06T08:24:55.508Z,32.61
2023-04-06T08:27:58.224Z,32.16
2023-04-06T08:31:01.016Z,30.85
2023-04-06T08:34:04.842Z,30.87
2023-04-06T08:37:07.564Z,33.13
2023-04-06T08:40:10.615Z,30.69
2023-04-06T08:43:14.839Z,30.20
2023-04-06T08:46:17.340Z,31.12
2023-04-06T08:49:20.449Z,30.21
2023-04-06T08:52:23.091Z,29.01
2023-04-06T08:55:25.630Z,30.97
2023-04-06T08:58:37.648Z,30.95
2023-04-06T09:01:44.300Z,30.77
2023-04-06T09:04:51.000Z,29.57
2023-04-06T09:07:53.917Z,30.77
2023-04-06T09:10:56.450Z,29.81
2023-04-06T09:13:59.288Z,30.33
2023-04-06T09:17:01.828Z,29.21
2023-04-06T09:20:04.636Z,29.43
2023-04-06T09:23:07.185Z,29.98
2023-04-06T09:26:13.370Z,31.07
2023-04-06T09:29:28.025Z,29.31
2023-04-06T09:32:30.885Z,29.60
2023-04-06T09:35:34.196Z,28.63
2023-04-06T09:38:56.248Z,28.94
2023-04-06T09:41:59.060Z,30.03
2023-04-06T09:45:04.373Z,27.15
2023-04-06T09:48:07.102Z,27.67
2023-04-06T09:51:09.601Z,27.88
2023-04-06T09:54:12.189Z,28.74
2023-04-06T09:57:27.461Z,27.48
2023-04-06T10:00:29.901Z,29.46
2023-04-06T10:03:38.808Z,26.37
2023-04-06T10:06:44.505Z,27.90
2023-04-06T10:09:46.953Z,27.59
2023-04-06T10:12:50.469Z,28.21
2023-04-06T10:15:53.329Z,26.22
2023-04-06T10:19:03.493Z,26.20
2023-04-06T10:22:05.988Z,26.79
2023-04-06T10:25:09.534Z,28.17
2023-04-06T10:28:12.756Z,26.26
2023-04-06T10:31:15.709Z,28.35
2023-04-06T10:34:18.293Z,25.61
2023-04-06T10:37:22.485Z,25.03
2023-04-06T10:40:28.329Z,24.19
2023-04-06T10:43:34.840Z,27.31
2023-04-06T10:46:37.435Z,26.96
2023-04-06T10:49:40.007Z,26.56
2023-04-06T10:52:42.683Z,26.05
2023-04-06T10:55:45.383Z,26.30
2023-04-06T10:58:53.403Z,27.17
2023-04-06T11:01:56.997Z,26.25
2023-04-06T11:04:59.730Z,26.28
2023-04-06T11:08:02.209Z,26.63
2023-04-06T11:11:11.798Z,27.64
2023-04-06T11:14:14.422Z,27.06
2023-04-06T11:17:17.384Z,25.71
2023-04-06T11:20:20.697Z,25.27
2023-04-06T11:23:25.398Z,25.74
2023-04-06T11:26:28.041Z,25.16
2023-04-06T11:29:34.910Z,26.15
2023-04-06T11:32:44.768Z,25.07
2023-04-06T11:35:47.834Z,22.48
2023-04-06T11:38:50.856Z,24.83
2023-04-06T11:42:08.534Z,25.46
2023-04-06T11:45:12.914Z,25.61
2023-04-06T11:48:19.624Z,23.10
2023-04-06T11:51:25.699Z,26.03
2023-04-06T11:54:38.765Z,24.74
2023-04-06T11:57:42.337Z,25.40
2023-04-06T12:00:47.598Z,26.35
2023-04-06T12:03:52.181Z,26.39
2023-04-06T12:06:55.037Z,26.51
2023-04-06T12:09:57.599Z,26.93
2023-04-06T12:13:00.312Z,27.42
2023-04-06T12:16:02.791Z,27.83
2023-04-06T12:19:05.441Z,27.71
2023-04-06T12:22:07.952Z,27.68
2023-04-06T12:25:10.674Z,28.76
2023-04-06T12:28:13.124Z,28.69
2023-04-06T12:31:19.245Z,28.14
2023-04-06T12:34:21.818Z,28.05
2023-04-06T12:37:24.446Z,27.75
2023-04-06T12:40:26.970Z,27.00
2023-04-06T12:43:29.538Z,27.13
2023-04-06T12:46:32.125Z,24.73
2023-04-06T12:49:34.622Z,24.97
2023-04-06T12:52:37.615Z,26.26
2023-04-06T12:55:40.128Z,27.84
2023-04-06T12:58:43.290Z,26.68
2023-04-06T13:01:46.525Z,27.40
2023-04-06T13:04:50.167Z,28.63
2023-04-06T13:07:52.698Z,27.60
2023-04-06T13:10:55.636Z,27.32
2023-04-06T13:13:58.252Z,27.04
2023-04-06T13:17:01.392Z,27.00
2023-04-06T13:20:04.653Z,27.37
2023-04-06T13:23:07.128Z,29.38
2023-04-06T13:26:09.402Z,28.09
2023-04-06T13:29:12.100Z,26.99
2023-04-06T13:32:15.069Z,30.28
2023-04-06T13:35:17.986Z,28.66
2023-04-06T13:38:20.619Z,28.37
2023-04-06T13:41:23.732Z,29.19
2023-04-06T13:44:27.148Z,28.58
2023-04-06T13:47:29.651Z,27.09
2023-04-06T13:50:32.105Z,28.70
2023-04-06T13:53:34.548Z,28.43
2023-04-06T13:56:37.333Z,28.12
2023-04-06T13:59:39.925Z,28.19
2023-04-06T14:02:42.620Z,29.08
2023-04-06T14:05:46.566Z,30.71
2023-04-06T14:08:49.174Z,31.09
2023-04-06T14:11:51.860Z,31.45
2023-04-06T14:14:54.327Z,32.74
2023-04-06T14:17:57.874Z,32.63
2023-04-06T14:21:00.527Z,30.52
2023-04-06T14:24:02.974Z,30.72
2023-04-06T14:27:05.382Z,30.67
2023-04-06T14:30:08.532Z,32.79
2023-04-06T14:33:10.928Z,32.41
2023-04-06T14:36:13.627Z,31.74
2023-04-06T14:39:16.054Z,32.99
2023-04-06T14:42:18.479Z,32.68
2023-04-06T14:45:22.805Z,33.66
2023-04-06T14:48:25.498Z,34.48
2023-04-06T14:51:30.854Z,36.24
2023-04-06T14:54:33.233Z,37.93
2023-04-06T14:57:35.830Z,37.22
2023-04-06T15:00:39.448Z,36.55
2023-04-06T15:03:41.945Z,34.23
2023-04-06T15:06:44.597Z,34.31
2023-04-06T15:09:47.005Z,35.02
2023-04-06T15:12:49.641Z,33.99
2023-04-06T15:15:52.741Z,33.96
2023-04-06T15:18:55.630Z,34.25
2023-04-06T15:21:59.677Z,35.88
2023-04-06T15:25:03.423Z,36.43
2023-04-06T15:28:05.921Z,38.54
2023-04-06T15:31:24.460Z,40.77
2023-04-06T15:34:38.827Z,41.36
2023-04-06T15:37:41.284Z,44.01
2023-04-06T15:40:47.909Z,42.99
2023-04-06T15:43:53.256Z,43.04
2023-04-06T15:46:55.933Z,44.11
2023-04-06T15:49:58.379Z,45.14
2023-04-06T15:53:01.135Z,45.79
2023-04-06T15:56:04.945Z,45.27
2023-04-06T15:59:08.169Z,44.87
2023-04-06T16:02:10.737Z,45.64
2023-04-06T16:05:13.616Z,44.07
2023-04-06T16:08:16.739Z,44.64
2023-04-06T16:11:19.225Z,44.54
2023-04-06T16:14:21.945Z,44.99
2023-04-06T16:17:24.619Z,45.99
2023-04-06T16:20:27.562Z,45.70
2023-04-06T16:23:30.152Z,45.67
2023-04-06T16:26:32.972Z,44.98
2023-04-06T16:29:35.817Z,44.83
2023-04-06T16:32:38.478Z,45.88
2023-04-06T16:35:47.404Z,46.03
2023-04-06T16:38:50.221Z,47.89
2023-04-06T16:41:52.792Z,48.37
2023-04-06T16:44:55.907Z,49.12
2023-04-06T16:47:58.575Z,47.68
2023-04-06T16:51:07.655Z,46.78
2023-04-06T16:54:10.057Z,46.89
2023-04-06T16:57:14.186Z,48.22
2023-04-06T17:00:17.416Z,50.34
2023-04-06T17:03:20.114Z,51.77
2023-04-06T17:06:22.800Z,52.93
2023-04-06T17:09:25.461Z,53.24
2023-04-06T17:12:29.000Z,54.25
2023-04-06T17:15:31.802Z,56.71
2023-04-06T17:18:34.978Z,57.95
2023-04-06T17:21:39.857Z,60.42
2023-04-06T17:24:42.294Z,60.63
2023-04-06T17:27:44.960Z,61.50
2023-04-06T17:30:47.508Z,61.89
2023-04-06T17:33:50.500Z,62.02
2023-04-06T17:36:52.902Z,64.67
2023-04-06T17:39:55.490Z,63.74
2023-04-06T17:42:58.075Z,64.79
2023-04-06T17:46:00.832Z,64.04
2023-04-06T17:49:03.368Z,63.58
2023-04-06T17:52:05.883Z,65.18
2023-04-06T17:55:08.594Z,64.97
2023-04-06T17:58:11.208Z,65.31
2023-04-06T18:01:14.813Z,65.73
2023-04-06T18:04:17.434Z,66.22
2023-04-06T18:07:19.940Z,67.09
2023-04-06T18:10:22.838Z,67.15
2023-04-06T18:13:25.472Z,67.79
2023-04-06T18:16:28.521Z,66.85
2023-04-06T18:19:32.304Z,68.56
2023-04-06T18:22:36.750Z,68.88
2023-04-06T18:25:42.309Z,68.72
2023-04-06T18:28:45.150Z,68.77
2023-04-06T18:31:52.120Z,69.59
2023-04-06T18:34:58.401Z,69.15
2023-04-06T18:38:01.020Z,69.29
2023-04-06T18:41:03.705Z,68.99
2023-04-06T18:44:06.416Z,70.06
2023-04-06T18:47:08.902Z,69.52
2023-04-06T18:50:11.468Z,70.10
2023-04-06T18:53:13.972Z,70.21
2023-04-06T18:56:17.645Z,68.97
2023-04-06T18:59:19.949Z,68.61
2023-04-06T19:02:22.349Z,69.03
2023-04-06T19:05:25.270Z,70.65
2023-04-06T19:08:27.748Z,70.54
2023-04-06T19:11:30.838Z,70.56
2023-04-06T19:14:33.942Z,69.75
2023-04-06T19:17:38.038Z,70.28
2023-04-06T19:20:40.603Z,70.09
2023-04-06T19:23:46.909Z,70.99
2023-04-06T19:26:49.451Z,70.50
2023-04-06T19:29:52.272Z,72.36
2023-04-06T19:32:54.819Z,71.17
2023-04-06T19:35:57.336Z,72.00
2023-04-06T19:38:59.963Z,70.71
2023-04-06T19:42:02.398Z,71.61
2023-04-06T19:45:06.099Z,72.38
2023-04-06T19:48:08.733Z,71.89
2023-04-06T19:51:11.312Z,72.80
2023-04-06T19:54:13.853Z,72.12
2023-04-06T19:57:16.697Z,71.07
2023-04-06T20:00:19.487Z,71.37
2023-04-06T20:03:21.988Z,72.55
2023-04-06T20:06:24.986Z,71.31
2023-04-06T20:09:28.054Z,72.35
2023-04-06T20:12:30.508Z,70.71
2023-04-06T20:15:33.096Z,71.27
2023-04-06T20:18:35.576Z,70.79
2023-04-06T20:21:39.631Z,70.43
2023-04-06T20:24:42.248Z,69.14
2023-04-06T20:27:45.720Z,70.17
2023-04-06T20:30:52.464Z,69.48
2023-04-06T20:33:55.411Z,69.25
2023-04-06T20:36:58.637Z,69.40
2023-04-06T20:40:01.736Z,68.67
2023-04-06T20:43:05.625Z,68.67
2023-04-06T20:46:09.375Z,68.81
2023-04-06T20:49:15.102Z,67.85
2023-04-06T20:52:17.684Z,68.07
2023-04-06T20:55:20.468Z,68.19
2023-04-06T20:58:23.358Z,69.18
2023-04-06T21:01:26.262Z,68.82
2023-04-06T21:04:28.950Z,69.62
2023-04-06T21:07:31.488Z,69.04
2023-04-06T21:10:34.001Z,68.15
2023-04-06T21:13:36.823Z,69.36
2023-04-06T21:16:39.593Z,69.59
2023-04-06T21:19:42.067Z,67.89
2023-04-06T21:22:44.725Z,67.62
2023-04-06T21:25:47.345Z,66.87
2023-04-06T21:28:49.785Z,68.52
2023-04-06T21:31:52.196Z,68.78
2023-04-06T21:34:54.624Z,68.48
2023-04-06T21:37:57.247Z,68.95
2023-04-06T21:40:59.921Z,67.72
2023-04-06T21:44:02.627Z,67.01
2023-04-06T21:47:05.267Z,68.14
2023-04-06T21:50:08.345Z,68.34
2023-04-06T21:53:10.974Z,67.33
2023-04-06T21:56:13.836Z,67.88
2023-04-06T21:59:16.463Z,66.56
2023-04-06T22:02:19.015Z,66.20
2023-04-06T22:05:21.563Z,66.64
2023-04-06T22:08:33.411Z,66.72
2023-04-06T22:11:36.348Z,67.43
2023-04-06T22:14:38.977Z,67.65
2023-04-06T22:17:41.530Z,67.30
2023-04-06T22:20:44.153Z,67.59
2023-04-06T22:23:46.576Z,66.79
2023-04-06T22:26:49.087Z,67.19
2023-04-06T22:29:51.780Z,67.48
2023-04-06T22:32:54.212Z,67.09
2023-04-06T22:35:56.780Z,67.30
2023-04-06T22:38:59.146Z,67.03
2023-04-06T22:42:01.649Z,67.77
2023-04-06T22:45:04.358Z,65.19
2023-04-06T22:48:06.925Z,64.34
2023-04-06T22:51:09.332Z,64.78
2023-04-06T22:54:11.819Z,64.96
2023-04-06T22:57:14.331Z,64.91
2023-04-06T23:00:17.216Z,66.00
2023-04-06T23:03:19.707Z,67.16
2023-04-06T23:06:22.195Z,66.39
2023-04-06T23:09:24.773Z,64.62
2023-04-06T23:12:27.256Z,64.45
2023-04-06T23:15:29.798Z,64.24
2023-04-06T23:18:32.210Z,65.55
2023-04-06T23:21:34.742Z,66.30
2023-04-06T23:24:37.331Z,65.95
2023-04-06T23:27:39.761Z,65.82
2023-04-06T23:30:42.641Z,66.32
2023-04-06T23:33:45.088Z,67.42
2023-04-06T23:36:47.660Z,66.36
2023-04-06T23:39:50.338Z,66.50
2023-04-06T23:42:52.754Z,64.59
2023-04-06T23:45:55.175Z,65.15
2023-04-06T23:48:57.627Z,65.88
2023-04-06T23:52:00.027Z,65.57
2023-04-06T23:55:02.445Z,65.45
2023-04-06T23:58:04.951Z,65.28
